createdAt,value
2018-01-03T00:01:21.180Z,89.67
2018-01-03T00:02:48.269Z,89.52
2018-01-03T00:04:10.883Z,89.58
2018-01-03T00:05:38.083Z,89.56
2018-01-03T00:07:09.313Z,89.66
2018-01-03T00:08:36.206Z,89.69
2018-01-03T00:09:59.564Z,89.77
2018-01-03T00:11:26.819Z,89.74
2018-01-03T00:12:58.086Z,89.71
2018-01-03T00:14:21.442Z,89.62
2018-01-03T00:15:48.645Z,89.60
2018-01-03T00:17:19.962Z,89.87
2018-01-03T00:18:43.102Z,89.93
2018-01-03T00:20:10.319Z,89.86
2018-01-03T00:21:37.006Z,89.96
2018-01-03T00:23:04.402Z,89.72
2018-01-03T00:24:31.659Z,89.72
2018-01-03T00:26:03.035Z,89.66
2018-01-03T00:27:25.694Z,89.61
2018-01-03T00:28:52.708Z,89.73
2018-01-03T00:30:20.084Z,89.76
2018-01-03T00:31:47.090Z,89.62
2018-01-03T00:33:14.256Z,89.57
2018-01-03T00:34:41.326Z,89.60
2018-01-03T00:36:12.548Z,89.65
2018-01-03T00:37:39.540Z,89.58
2018-01-03T00:39:06.819Z,89.88
2018-01-03T00:40:30.263Z,90.03
2018-01-03T00:41:57.604Z,90.03
2018-01-03T00:43:24.927Z,90.00
2018-01-03T00:44:52.164Z,90.03
2018-01-03T00:46:22.876Z,90.25
2018-01-03T00:47:50.046Z,90.00
2018-01-03T00:49:17.193Z,89.85
2018-01-03T00:50:44.247Z,90.09
2018-01-03T00:52:07.525Z,90.00
2018-01-03T00:53:34.795Z,90.37
2018-01-03T00:55:01.929Z,90.35
2018-01-03T00:56:29.021Z,89.86
2018-01-03T00:57:56.008Z,90.08
2018-01-03T00:59:27.348Z,89.65
2018-01-03T01:00:50.298Z,89.93
2018-01-03T01:02:17.402Z,89.55
2018-01-03T01:03:48.646Z,89.80
2018-01-03T01:05:11.692Z,89.39
2018-01-03T01:06:38.791Z,89.16
2018-01-03T01:08:10.045Z,89.25
2018-01-03T01:09:33.598Z,89.11
2018-01-03T01:11:00.773Z,88.92
2018-01-03T01:12:31.877Z,88.57
2018-01-03T01:13:55.069Z,88.60
2018-01-03T01:15:22.206Z,88.46
2018-01-03T01:16:53.351Z,88.71
2018-01-03T01:18:20.753Z,88.22
2018-01-03T01:19:47.669Z,87.91
2018-01-03T01:21:10.842Z,88.15
2018-01-03T01:22:38.302Z,88.17
2018-01-03T01:24:05.227Z,87.95
2018-01-03T01:25:36.186Z,87.96
2018-01-03T01:27:03.110Z,87.70
2018-01-03T01:28:26.270Z,87.56
2018-01-03T01:29:53.518Z,88.23
2018-01-03T01:31:24.516Z,88.47
2018-01-03T01:32:51.567Z,88.41
2018-01-03T01:34:14.689Z,88.47
2018-01-03T01:35:45.661Z,88.74
2018-01-03T01:37:08.941Z,88.61
2018-01-03T01:38:36.212Z,88.02
2018-01-03T01:40:03.227Z,88.41
2018-01-03T01:41:34.194Z,88.09
2018-01-03T01:42:57.371Z,87.91
2018-01-03T01:44:24.651Z,87.34
2018-01-03T01:45:55.683Z,86.83
2018-01-03T01:47:18.845Z,86.67
2018-01-03T01:48:49.962Z,86.55
2018-01-03T01:50:16.564Z,85.97
2018-01-03T01:51:43.725Z,85.48
2018-01-03T01:53:06.971Z,85.98
2018-01-03T01:54:33.981Z,85.82
2018-01-03T01:56:05.275Z,85.72
2018-01-03T01:57:28.162Z,85.90
2018-01-03T01:58:59.315Z,86.21
2018-01-03T02:00:26.397Z,85.75
2018-01-03T02:01:53.664Z,85.88
2018-01-03T02:03:16.907Z,85.98
2018-01-03T02:04:47.954Z,86.27
2018-01-03T02:06:10.925Z,86.67
2018-01-03T02:07:38.289Z,86.73
2018-01-03T02:09:05.161Z,86.62
2018-01-03T02:10:32.380Z,86.24
2018-01-03T02:12:03.584Z,86.70
2018-01-03T02:13:30.830Z,86.75
2018-01-03T02:14:54.130Z,87.02
2018-01-03T02:16:25.408Z,86.92
2018-01-03T02:17:55.616Z,86.72
2018-01-03T02:19:19.599Z,86.93
2018-01-03T02:20:42.638Z,87.06
2018-01-03T02:22:09.770Z,87.00
2018-01-03T02:23:40.364Z,86.86
2018-01-03T02:25:07.555Z,87.03
2018-01-03T02:26:35.862Z,86.77
2018-01-03T02:28:02.094Z,86.97
2018-01-03T02:29:25.365Z,86.78
2018-01-03T02:30:56.221Z,87.03
2018-01-03T02:32:19.525Z,87.77
2018-01-03T02:33:46.150Z,87.92
2018-01-03T02:35:17.204Z,87.42
2018-01-03T02:36:40.398Z,87.39
2018-01-03T02:38:11.658Z,87.52
2018-01-03T02:39:38.952Z,87.72
2018-01-03T02:41:02.426Z,87.50
2018-01-03T02:42:29.543Z,88.03
2018-01-03T02:44:00.681Z,87.94
2018-01-03T02:45:23.963Z,88.04
2018-01-03T02:46:51.209Z,87.96
2018-01-03T02:48:22.498Z,88.42
2018-01-03T02:49:45.796Z,88.63
2018-01-03T02:51:16.956Z,88.41
2018-01-03T02:52:40.551Z,88.74
2018-01-03T02:54:07.818Z,88.86
2018-01-03T02:55:35.080Z,89.36
2018-01-03T02:57:06.245Z,89.35
2018-01-03T02:58:33.265Z,89.52
2018-01-03T03:00:00.588Z,89.73
2018-01-03T03:01:23.771Z,89.70
2018-01-03T03:02:54.969Z,89.91
2018-01-03T03:04:22.134Z,90.48
2018-01-03T03:05:48.986Z,89.89
2018-01-03T03:07:16.198Z,90.16
2018-01-03T03:08:39.454Z,90.29
2018-01-03T03:10:10.735Z,90.20
2018-01-03T03:11:33.769Z,90.47
2018-01-03T03:13:01.181Z,90.65
2018-01-03T03:14:28.150Z,90.74
2018-01-03T03:15:55.365Z,90.75
2018-01-03T03:17:26.617Z,91.37
2018-01-03T03:18:49.450Z,91.36
2018-01-03T03:20:20.618Z,91.03
2018-01-03T03:21:47.476Z,90.98
2018-01-03T03:23:10.640Z,91.24
2018-01-03T03:24:37.314Z,91.25
2018-01-03T03:26:08.565Z,91.03
2018-01-03T03:27:35.754Z,91.54
2018-01-03T03:28:59.037Z,91.61
2018-01-03T03:30:29.422Z,91.94
2018-01-03T03:31:56.642Z,91.82
2018-01-03T03:33:19.847Z,91.78
2018-01-03T03:34:46.705Z,91.72
2018-01-03T03:36:13.673Z,92.03
2018-01-03T03:37:40.285Z,92.21
2018-01-03T03:39:07.319Z,92.13
2018-01-03T03:40:34.237Z,92.10
2018-01-03T03:42:05.437Z,92.13
2018-01-03T03:43:28.658Z,92.35
2018-01-03T03:44:55.941Z,92.57
2018-01-03T03:46:27.229Z,92.49
2018-01-03T03:47:50.245Z,92.60
2018-01-03T03:49:21.374Z,93.01
2018-01-03T03:50:44.574Z,93.01
2018-01-03T03:52:15.455Z,93.15
2018-01-03T03:53:42.906Z,93.24
2018-01-03T03:55:06.108Z,93.09
2018-01-03T03:56:33.187Z,93.61
2018-01-03T03:58:00.389Z,94.15
2018-01-03T03:59:31.629Z,94.17
2018-01-03T04:00:58.539Z,94.23
2018-01-03T04:02:21.607Z,94.71
2018-01-03T04:03:52.438Z,94.59
2018-01-03T04:05:19.680Z,94.04
2018-01-03T04:06:46.750Z,94.52
2018-01-03T04:08:09.974Z,94.72
2018-01-03T04:09:37.192Z,94.72
2018-01-03T04:11:08.418Z,95.82
2018-01-03T04:12:35.477Z,95.82
2018-01-03T04:13:58.863Z,95.78
2018-01-03T04:15:25.638Z,95.75
2018-01-03T04:16:52.858Z,96.06
2018-01-03T04:18:20.007Z,97.00
2018-01-03T04:19:47.264Z,97.30
2018-01-03T04:21:18.448Z,97.19
2018-01-03T04:22:41.027Z,97.63
2018-01-03T04:24:12.044Z,97.63
2018-01-03T04:25:39.147Z,96.72
2018-01-03T04:27:06.251Z,96.53
2018-01-03T04:28:33.582Z,96.72
2018-01-03T04:29:56.868Z,96.92
2018-01-03T04:31:24.020Z,96.93
2018-01-03T04:32:51.208Z,97.06
2018-01-03T04:34:18.313Z,96.76
2018-01-03T04:35:45.516Z,96.83
2018-01-03T04:37:12.844Z,96.80
2018-01-03T04:38:40.128Z,96.76
2018-01-03T04:40:07.294Z,97.02
2018-01-03T04:41:38.472Z,96.98
2018-01-03T04:43:05.743Z,97.31
2018-01-03T04:44:32.965Z,97.65
2018-01-03T04:46:00.254Z,97.43
2018-01-03T04:47:23.268Z,96.94
2018-01-03T04:48:50.412Z,97.64
2018-01-03T04:50:17.776Z,97.77
2018-01-03T04:51:44.799Z,97.82
2018-01-03T04:53:11.760Z,97.92
2018-01-03T04:54:38.813Z,97.67
2018-01-03T04:56:06.114Z,97.47
2018-01-03T04:57:37.265Z,97.87
2018-01-03T04:59:00.688Z,97.86
2018-01-03T05:00:27.402Z,97.71
2018-01-03T05:01:58.676Z,97.79
2018-01-03T05:03:22.030Z,97.71
2018-01-03T05:04:52.679Z,97.28
2018-01-03T05:06:19.963Z,97.41
2018-01-03T05:07:47.047Z,97.56
2018-01-03T05:09:14.355Z,97.29
2018-01-03T05:10:37.596Z,97.32
2018-01-03T05:12:08.817Z,97.61
2018-01-03T05:13:35.958Z,97.61
2018-01-03T05:14:59.163Z,97.69
2018-01-03T05:16:25.978Z,98.23
2018-01-03T05:17:53.314Z,97.95
2018-01-03T05:19:20.356Z,98.06
2018-01-03T05:20:51.593Z,98.26
2018-01-03T05:22:18.913Z,98.28
2018-01-03T05:23:42.225Z,98.18
2018-01-03T05:25:09.320Z,98.17
2018-01-03T05:26:36.617Z,98.39
2018-01-03T05:28:03.649Z,98.11
2018-01-03T05:29:34.506Z,98.28
2018-01-03T05:30:57.755Z,98.31
2018-01-03T05:32:24.944Z,98.43
2018-01-03T05:33:56.172Z,98.34
2018-01-03T05:35:19.207Z,98.48
2018-01-03T05:36:46.118Z,98.72
2018-01-03T05:38:13.039Z,98.66
2018-01-03T05:39:44.486Z,98.68
2018-01-03T05:41:07.916Z,98.92
2018-01-03T05:42:35.189Z,98.91
2018-01-03T05:44:02.451Z,98.82
2018-01-03T05:45:29.669Z,98.85
2018-01-03T05:47:00.749Z,99.05
2018-01-03T05:48:28.009Z,99.05
2018-01-03T05:49:51.003Z,98.97
2018-01-03T05:51:22.192Z,99.17
2018-01-03T05:52:49.078Z,99.16
2018-01-03T05:54:12.421Z,100.00
2018-01-03T05:55:39.354Z,100.00
2018-01-03T05:57:06.460Z,100.00
2018-01-03T05:58:33.310Z,100.00
2018-01-03T06:00:00.340Z,100.00
2018-01-03T06:01:27.652Z,100.00
2018-01-03T06:02:58.773Z,100.00
2018-01-03T06:04:21.951Z,100.00
2018-01-03T06:05:49.062Z,100.00
2018-01-03T06:07:20.293Z,100.00
2018-01-03T06:08:43.573Z,100.00
2018-01-03T06:10:14.308Z,100.00
2018-01-03T06:11:37.708Z,100.00
2018-01-03T06:13:04.991Z,100.00
2018-01-03T06:14:31.647Z,100.00
2018-01-03T06:15:58.970Z,100.00
2018-01-03T06:17:29.679Z,100.00
2018-01-03T06:18:56.889Z,100.00
2018-01-03T06:20:20.200Z,100.00
2018-01-03T06:21:47.142Z,100.00
2018-01-03T06:23:14.348Z,100.00
2018-01-03T06:24:45.281Z,100.00
2018-01-03T06:26:08.522Z,100.00
2018-01-03T06:27:39.812Z,100.00
2018-01-03T06:29:03.155Z,100.00
2018-01-03T06:30:34.067Z,100.00
2018-01-03T06:32:01.113Z,100.00
2018-01-03T06:33:28.323Z,100.00
2018-01-03T06:34:54.917Z,100.00
2018-01-03T06:36:22.082Z,100.00
2018-01-03T06:37:48.965Z,100.00
2018-01-03T06:39:16.182Z,100.00
2018-01-03T06:40:39.446Z,100.00
2018-01-03T06:42:06.561Z,100.00
2018-01-03T06:43:37.787Z,100.00
2018-01-03T06:45:01.028Z,100.00
2018-01-03T06:46:32.339Z,100.00
2018-01-03T06:47:55.417Z,100.00
2018-01-03T06:49:22.438Z,100.00
2018-01-03T06:50:49.841Z,100.00
2018-01-03T06:52:21.030Z,100.00
2018-01-03T06:53:48.152Z,100.00
2018-01-03T06:55:11.163Z,100.00
2018-01-03T06:56:38.366Z,100.00
2018-01-03T06:58:05.786Z,100.00
2018-01-03T06:59:36.967Z,100.00
2018-01-03T07:01:00.181Z,100.00
2018-01-03T07:02:27.463Z,100.00
2018-01-03T07:03:54.840Z,100.00
2018-01-03T07:05:22.166Z,100.00
2018-01-03T07:06:53.289Z,100.00
2018-01-03T07:08:16.608Z,100.00
2018-01-03T07:09:47.800Z,100.00
2018-01-03T07:11:14.816Z,100.00
2018-01-03T07:12:41.738Z,100.00
2018-01-03T07:14:04.979Z,100.00
2018-01-03T07:15:36.160Z,100.00
2018-01-03T07:16:59.410Z,100.00
2018-01-03T07:18:26.495Z,100.00
2018-01-03T07:19:53.723Z,100.00
2018-01-03T07:21:20.764Z,100.00
2018-01-03T07:22:48.009Z,100.00
2018-01-03T07:24:18.973Z,100.00
2018-01-03T07:25:46.078Z,100.00
2018-01-03T07:27:09.525Z,100.00
2018-01-03T07:28:40.530Z,100.00
2018-01-03T07:30:03.732Z,100.00
2018-01-03T07:31:31.008Z,100.00
2018-01-03T07:33:02.202Z,100.00
2018-01-03T07:34:29.236Z,100.00
2018-01-03T07:35:52.438Z,100.00
2018-01-03T07:37:19.746Z,100.00
2018-01-03T07:38:46.948Z,100.00
2018-01-03T07:40:14.171Z,100.00
2018-01-03T07:41:41.085Z,100.00
2018-01-03T07:43:12.380Z,100.00
2018-01-03T07:44:39.402Z,100.00
2018-01-03T07:46:06.844Z,100.00
2018-01-03T07:47:33.887Z,100.00
2018-01-03T07:48:57.246Z,100.00
2018-01-03T07:50:24.275Z,100.00
2018-01-03T07:51:51.585Z,100.00
2018-01-03T07:53:18.960Z,100.00
2018-01-03T07:54:50.049Z,100.00
2018-01-03T07:56:17.305Z,100.00
2018-01-03T07:57:40.242Z,100.00
2018-01-03T07:59:11.418Z,100.00
2018-01-03T08:00:38.308Z,100.00
2018-01-03T08:02:01.583Z,100.00
2018-01-03T08:03:32.601Z,100.00
2018-01-03T08:04:59.923Z,100.00
2018-01-03T08:06:23.038Z,100.00
2018-01-03T08:07:53.889Z,100.00
2018-01-03T08:09:21.090Z,100.00
2018-01-03T08:10:44.085Z,100.00
2018-01-03T08:12:10.996Z,100.00
2018-01-03T08:13:41.687Z,100.00
2018-01-03T08:15:08.835Z,100.00
2018-01-03T08:16:32.083Z,100.00
2018-01-03T08:18:03.190Z,100.00
2018-01-03T08:19:26.096Z,100.00
2018-01-03T08:20:57.423Z,100.00
2018-01-03T08:22:24.430Z,100.00
2018-01-03T08:23:51.793Z,100.00
2018-01-03T08:25:18.943Z,100.00
2018-01-03T08:26:41.982Z,100.00
2018-01-03T08:28:09.199Z,100.00
2018-01-03T08:29:36.360Z,100.00
2018-01-03T08:31:03.624Z,100.00
2018-01-03T08:32:30.732Z,100.00
2018-01-03T08:33:57.773Z,100.00
2018-01-03T08:35:29.055Z,100.00
2018-01-03T08:36:52.240Z,100.00
2018-01-03T08:38:23.573Z,100.00
2018-01-03T08:39:50.674Z,100.00
2018-01-03T08:41:13.820Z,100.00
2018-01-03T08:42:40.949Z,100.00
2018-01-03T08:44:12.160Z,100.00
2018-01-03T08:45:39.096Z,100.00
2018-01-03T08:47:02.222Z,100.00
2018-01-03T08:48:29.612Z,100.00
2018-01-03T08:50:00.997Z,100.00
2018-01-03T08:51:24.190Z,100.00
2018-01-03T08:52:55.315Z,100.00
2018-01-03T08:54:18.534Z,100.00
2018-01-03T08:55:49.548Z,100.00
2018-01-03T08:57:12.751Z,100.00
2018-01-03T08:58:40.042Z,100.00
2018-01-03T09:00:07.386Z,100.00
2018-01-03T09:01:34.694Z,100.00
2018-01-03T09:03:02.026Z,100.00
2018-01-03T09:04:33.304Z,100.00
2018-01-03T09:05:56.657Z,100.00
2018-01-03T09:07:23.933Z,100.00
2018-01-03T09:08:51.289Z,100.00
2018-01-03T09:10:18.476Z,100.00
2018-01-03T09:11:49.742Z,100.00
2018-01-03T09:13:12.986Z,100.00
2018-01-03T09:14:40.204Z,100.00
2018-01-03T09:16:11.532Z,100.00
2018-01-03T09:17:34.759Z,100.00
2018-01-03T09:19:01.978Z,100.00
2018-01-03T09:20:29.149Z,100.00
2018-01-03T09:21:56.448Z,100.00
2018-01-03T09:23:23.661Z,100.00
2018-01-03T09:24:50.885Z,100.00
2018-01-03T09:26:18.157Z,100.00
2018-01-03T09:27:45.402Z,100.00
2018-01-03T09:29:12.483Z,100.00
2018-01-03T09:30:39.662Z,100.00
2018-01-03T09:32:06.898Z,100.00
2018-01-03T09:33:34.187Z,100.00
2018-01-03T09:35:01.455Z,100.00
2018-01-03T09:36:32.670Z,100.00
2018-01-03T09:37:55.691Z,100.00
2018-01-03T09:39:23.079Z,100.00
2018-01-03T09:40:50.282Z,100.00
2018-01-03T09:42:17.566Z,100.00
2018-01-03T09:43:44.742Z,100.00
2018-01-03T09:45:15.929Z,100.00
2018-01-03T09:46:39.480Z,100.00
2018-01-03T09:48:06.793Z,100.00
2018-01-03T09:49:38.080Z,100.00
2018-01-03T09:51:05.259Z,100.00
2018-01-03T09:52:28.803Z,100.00
2018-01-03T09:53:56.277Z,100.00
2018-01-03T09:55:23.309Z,100.00
2018-01-03T09:56:50.532Z,100.00
2018-01-03T09:58:17.815Z,100.00
2018-01-03T09:59:48.978Z,100.00
2018-01-03T10:01:12.046Z,100.00
2018-01-03T10:02:39.188Z,100.00
2018-01-03T10:04:06.582Z,100.00
2018-01-03T10:05:33.805Z,100.00
2018-01-03T10:07:01.030Z,100.00
2018-01-03T10:08:32.372Z,100.00
2018-01-03T10:09:55.689Z,100.00
2018-01-03T10:11:23.050Z,100.00
2018-01-03T10:12:50.305Z,100.00
2018-01-03T10:14:17.607Z,100.00
2018-01-03T10:15:48.846Z,100.00
2018-01-03T10:17:11.958Z,100.00
2018-01-03T10:18:39.258Z,100.00
2018-01-03T10:20:10.576Z,100.00
2018-01-03T10:21:33.800Z,100.00
2018-01-03T10:23:01.031Z,100.00
2018-01-03T10:24:32.372Z,100.00
2018-01-03T10:25:55.580Z,100.00
2018-01-03T10:27:27.131Z,100.00
2018-01-03T10:28:50.444Z,100.00
2018-01-03T10:30:21.749Z,100.00
2018-01-03T10:31:44.847Z,100.00
2018-01-03T10:33:16.032Z,100.00
2018-01-03T10:34:39.249Z,100.00
2018-01-03T10:36:06.454Z,100.00
2018-01-03T10:37:37.718Z,100.00
2018-01-03T10:39:01.096Z,100.00
2018-01-03T10:40:28.471Z,100.00
2018-01-03T10:41:55.588Z,100.00
2018-01-03T10:43:22.874Z,100.00
2018-01-03T10:44:50.069Z,100.00
2018-01-03T10:46:17.207Z,100.00
2018-01-03T10:47:44.456Z,100.00
2018-01-03T10:49:15.486Z,100.00
2018-01-03T10:50:38.738Z,100.00
2018-01-03T10:52:06.213Z,100.00
2018-01-03T10:53:33.497Z,100.00
2018-01-03T10:55:00.862Z,100.00
2018-01-03T10:56:28.117Z,100.00
2018-01-03T10:57:59.342Z,100.00
2018-01-03T10:59:22.752Z,100.00
2018-01-03T11:00:49.983Z,100.00
2018-01-03T11:02:17.324Z,100.00
2018-01-03T11:03:44.695Z,100.00
2018-01-03T11:05:11.984Z,100.00
2018-01-03T11:06:43.102Z,100.00
2018-01-03T11:08:10.330Z,100.00
2018-01-03T11:09:33.652Z,100.00
2018-01-03T11:11:04.943Z,100.00
2018-01-03T11:12:28.118Z,100.00
2018-01-03T11:13:55.553Z,100.00
2018-01-03T11:15:22.848Z,100.00
2018-01-03T11:16:50.043Z,100.00
2018-01-03T11:18:17.260Z,100.00
2018-01-03T11:19:44.548Z,100.00
2018-01-03T11:21:15.536Z,100.00
2018-01-03T11:22:38.803Z,100.00
2018-01-03T11:24:05.977Z,100.00
2018-01-03T11:25:33.417Z,100.00
2018-01-03T11:27:00.659Z,100.00
2018-01-03T11:28:27.992Z,100.00
2018-01-03T11:29:55.394Z,100.00
2018-01-03T11:31:22.647Z,100.00
2018-01-03T11:32:49.979Z,100.00
2018-01-03T11:34:17.234Z,100.00
2018-01-03T11:35:48.478Z,100.00
2018-01-03T11:37:15.644Z,100.00
2018-01-03T11:38:38.834Z,100.00
2018-01-03T11:40:10.059Z,100.00
2018-01-03T11:41:33.377Z,100.00
2018-01-03T11:43:00.398Z,100.00
2018-01-03T11:44:31.685Z,100.00
2018-01-03T11:45:55.015Z,100.00
2018-01-03T11:47:22.203Z,100.00
2018-01-03T11:48:49.453Z,100.00
2018-01-03T11:50:16.634Z,100.00
2018-01-03T11:51:43.887Z,100.00
2018-01-03T11:53:10.967Z,100.00
2018-01-03T11:54:38.076Z,100.00
2018-01-03T11:56:05.368Z,100.00
2018-01-03T11:57:32.771Z,100.00
2018-01-03T11:59:03.983Z,100.00
2018-01-03T12:00:27.465Z,100.00
2018-01-03T12:01:58.642Z,100.00
2018-01-03T12:03:21.733Z,100.00
2018-01-03T12:04:49.029Z,100.00
2018-01-03T12:06:16.300Z,100.00
2018-01-03T12:07:43.358Z,100.00
2018-01-03T12:09:10.498Z,100.00
2018-01-03T12:10:37.761Z,100.00
2018-01-03T12:12:05.990Z,99.90
2018-01-03T12:13:32.433Z,99.82
2018-01-03T12:14:59.717Z,100.00
2018-01-03T12:16:26.923Z,99.68
2018-01-03T12:17:54.226Z,99.56
2018-01-03T12:19:21.563Z,99.48
2018-01-03T12:20:52.893Z,99.21
2018-01-03T12:22:19.890Z,98.96
2018-01-03T12:23:43.178Z,99.15
2018-01-03T12:25:10.696Z,98.75
2018-01-03T12:26:37.767Z,98.73
2018-01-03T12:28:08.951Z,98.19
2018-01-03T12:29:36.225Z,98.31
2018-01-03T12:30:59.523Z,97.93
2018-01-03T12:32:26.930Z,97.72
2018-01-03T12:33:53.909Z,97.64
2018-01-03T12:35:21.212Z,97.83
2018-01-03T12:36:48.207Z,97.71
2018-01-03T12:38:15.263Z,97.66
2018-01-03T12:39:42.150Z,98.37
2018-01-03T12:41:13.438Z,99.02
2018-01-03T12:42:40.841Z,98.55
2018-01-03T12:44:04.154Z,98.67
2018-01-03T12:45:31.083Z,98.79
2018-01-03T12:46:58.274Z,98.76
2018-01-03T12:48:25.565Z,98.61
2018-01-03T12:49:52.795Z,97.82
2018-01-03T12:51:20.019Z,97.86
2018-01-03T12:52:50.970Z,98.19
2018-01-03T12:54:14.068Z,97.86
2018-01-03T12:55:41.392Z,97.25
2018-01-03T12:57:13.328Z,96.67
2018-01-03T12:58:35.382Z,96.89
2018-01-03T13:00:06.772Z,97.43
2018-01-03T13:01:33.716Z,97.63
2018-01-03T13:03:01.026Z,97.98
2018-01-03T13:04:24.339Z,97.91
2018-01-03T13:05:55.594Z,98.44
2018-01-03T13:07:22.736Z,98.65
2018-01-03T13:08:46.008Z,98.30
2018-01-03T13:10:13.079Z,98.43
2018-01-03T13:11:40.061Z,98.38
2018-01-03T13:13:07.148Z,98.27
2018-01-03T13:14:34.644Z,97.96
2018-01-03T13:16:05.702Z,97.89
2018-01-03T13:17:28.934Z,97.81
2018-01-03T13:18:56.143Z,97.79
2018-01-03T13:20:23.383Z,97.67
2018-01-03T13:21:50.651Z,97.82
2018-01-03T13:23:17.933Z,97.26
2018-01-03T13:24:49.161Z,97.45
2018-01-03T13:26:12.427Z,97.63
2018-01-03T13:27:39.610Z,97.41
2018-01-03T13:29:06.827Z,97.53
2018-01-03T13:30:34.207Z,97.70
2018-01-03T13:32:01.290Z,97.94
2018-01-03T13:33:32.343Z,97.80
2018-01-03T13:34:55.775Z,97.83
2018-01-03T13:36:23.155Z,98.01
2018-01-03T13:37:50.435Z,97.99
2018-01-03T13:39:17.362Z,97.79
2018-01-03T13:40:44.658Z,97.39
2018-01-03T13:42:15.791Z,97.48
2018-01-03T13:43:38.942Z,97.32
2018-01-03T13:45:06.266Z,96.92
2018-01-03T13:46:37.784Z,96.65
2018-01-03T13:48:01.117Z,96.43
2018-01-03T13:49:27.927Z,96.12
2018-01-03T13:50:59.122Z,95.91
2018-01-03T13:52:22.226Z,95.75
2018-01-03T13:53:49.507Z,95.61
2018-01-03T13:55:20.865Z,95.93
2018-01-03T13:56:44.183Z,95.47
2018-01-03T13:58:15.373Z,95.39
2018-01-03T13:59:42.266Z,95.29
2018-01-03T14:01:09.308Z,95.36
2018-01-03T14:02:32.771Z,95.54
2018-01-03T14:04:04.064Z,95.68
2018-01-03T14:05:27.417Z,95.32
2018-01-03T14:06:54.649Z,95.72
2018-01-03T14:08:25.884Z,95.61
2018-01-03T14:09:48.821Z,95.77
2018-01-03T14:11:16.200Z,95.58
2018-01-03T14:12:43.397Z,95.44
2018-01-03T14:14:10.566Z,95.72
2018-01-03T14:15:37.296Z,95.26
2018-01-03T14:17:08.596Z,95.32
2018-01-03T14:18:35.965Z,95.41
2018-01-03T14:19:59.309Z,95.28
2018-01-03T14:21:26.641Z,95.13
2018-01-03T14:22:57.710Z,95.26
2018-01-03T14:24:24.976Z,95.14
2018-01-03T14:25:48.395Z,95.01
2018-01-03T14:27:15.653Z,95.36
2018-01-03T14:28:42.903Z,95.66
2018-01-03T14:30:10.336Z,95.17
2018-01-03T14:31:37.493Z,95.19
2018-01-03T14:33:04.662Z,94.95
2018-01-03T14:34:32.035Z,95.13
2018-01-03T14:35:58.827Z,95.28
2018-01-03T14:37:30.085Z,95.06
2018-01-03T14:38:53.276Z,94.98
2018-01-03T14:40:24.670Z,95.25
2018-01-03T14:41:47.852Z,95.33
2018-01-03T14:43:18.976Z,95.08
2018-01-03T14:44:41.987Z,95.27
2018-01-03T14:46:09.045Z,95.50
2018-01-03T14:47:39.845Z,95.71
2018-01-03T14:49:06.337Z,95.51
2018-01-03T14:50:29.759Z,95.51
2018-01-03T14:51:57.179Z,95.30
2018-01-03T14:53:24.432Z,95.34
2018-01-03T14:54:55.491Z,94.94
2018-01-03T14:56:18.595Z,95.05
2018-01-03T14:57:45.492Z,94.97
2018-01-03T14:59:16.707Z,94.98
2018-01-03T15:00:44.016Z,94.88
2018-01-03T15:02:11.286Z,94.90
2018-01-03T15:03:38.673Z,94.87
2018-01-03T15:05:01.945Z,94.88
2018-01-03T15:06:28.997Z,95.06
2018-01-03T15:07:56.250Z,95.17
2018-01-03T15:09:23.514Z,95.27
2018-01-03T15:10:50.698Z,95.25
2018-01-03T15:12:17.861Z,95.35
2018-01-03T15:13:48.590Z,95.05
2018-01-03T15:15:11.882Z,95.29
2018-01-03T15:16:38.725Z,95.30
2018-01-03T15:18:09.984Z,95.54
2018-01-03T15:19:33.501Z,95.73
2018-01-03T15:21:04.833Z,95.87
2018-01-03T15:22:32.156Z,95.84
2018-01-03T15:23:55.550Z,96.22
2018-01-03T15:25:22.642Z,96.47
2018-01-03T15:26:49.841Z,96.51
2018-01-03T15:28:21.036Z,96.80
2018-01-03T15:29:44.194Z,97.30
2018-01-03T15:31:11.251Z,97.10
2018-01-03T15:32:42.590Z,97.12
2018-01-03T15:34:05.838Z,97.16
2018-01-03T15:35:37.197Z,97.12
2018-01-03T15:37:00.575Z,97.20
2018-01-03T15:38:27.566Z,97.14
2018-01-03T15:39:58.705Z,97.40
2018-01-03T15:41:22.038Z,97.49
2018-01-03T15:42:49.166Z,97.31
2018-01-03T15:44:16.425Z,97.50
2018-01-03T15:45:43.515Z,97.56
2018-01-03T15:47:10.518Z,97.55
2018-01-03T15:48:41.777Z,97.25
2018-01-03T15:50:04.962Z,97.05
2018-01-03T15:51:32.243Z,97.17
2018-01-03T15:52:59.402Z,97.00
2018-01-03T15:54:26.535Z,97.24
2018-01-03T15:55:53.809Z,97.33
2018-01-03T15:57:21.072Z,97.54
2018-01-03T15:58:48.474Z,97.26
2018-01-03T16:00:15.577Z,97.68
2018-01-03T16:01:42.776Z,97.53
2018-01-03T16:03:14.126Z,97.70
2018-01-03T16:04:37.217Z,97.31
2018-01-03T16:06:04.216Z,97.42
2018-01-03T16:07:35.216Z,97.48
2018-01-03T16:08:58.671Z,97.59
2018-01-03T16:10:26.026Z,97.83
2018-01-03T16:11:57.357Z,97.79
2018-01-03T16:13:20.382Z,98.02
2018-01-03T16:14:47.676Z,98.17
2018-01-03T16:16:14.900Z,97.92
2018-01-03T16:17:46.078Z,98.17
2018-01-03T16:19:09.352Z,98.32
2018-01-03T16:20:36.613Z,98.30
2018-01-03T16:22:03.964Z,98.26
2018-01-03T16:23:31.137Z,98.21
2018-01-03T16:24:58.454Z,98.12
2018-01-03T16:26:25.846Z,98.06
2018-01-03T16:27:53.042Z,97.97
2018-01-03T16:29:20.199Z,98.03
2018-01-03T16:30:51.228Z,98.24
2018-01-03T16:32:14.482Z,98.04
2018-01-03T16:33:45.445Z,98.09
2018-01-03T16:35:12.606Z,98.18
2018-01-03T16:36:39.852Z,98.24
2018-01-03T16:38:07.260Z,98.13
2018-01-03T16:39:30.335Z,98.07
2018-01-03T16:40:57.167Z,98.03
2018-01-03T16:42:28.438Z,98.13
2018-01-03T16:43:51.967Z,98.11
2018-01-03T16:45:19.144Z,98.02
2018-01-03T16:46:46.189Z,98.19
2018-01-03T16:48:13.339Z,98.08
2018-01-03T16:49:40.596Z,98.00
2018-01-03T16:51:07.571Z,98.13
2018-01-03T16:52:34.443Z,97.82
2018-01-03T16:54:01.713Z,97.89
2018-01-03T16:55:29.069Z,97.82
2018-01-03T16:57:00.359Z,97.77
2018-01-03T16:58:27.679Z,97.96
2018-01-03T16:59:51.045Z,97.91
2018-01-03T17:01:18.243Z,97.95
2018-01-03T17:02:45.455Z,97.83
2018-01-03T17:04:12.312Z,97.87
2018-01-03T17:05:39.617Z,97.89
2018-01-03T17:07:11.132Z,97.77
2018-01-03T17:08:34.206Z,97.72
2018-01-03T17:10:05.461Z,97.91
2018-01-03T17:11:32.698Z,98.00
2018-01-03T17:12:56.063Z,98.02
2018-01-03T17:14:27.396Z,97.86
2018-01-03T17:15:54.423Z,97.92
2018-01-03T17:17:17.809Z,98.02
2018-01-03T17:18:49.034Z,98.08
2018-01-03T17:20:12.225Z,98.15
2018-01-03T17:21:39.386Z,98.20
2018-01-03T17:23:06.827Z,98.17
2018-01-03T17:24:33.741Z,98.18
2018-01-03T17:26:04.919Z,98.04
2018-01-03T17:27:28.237Z,97.87
2018-01-03T17:28:55.538Z,97.59
2018-01-03T17:30:22.552Z,97.63
2018-01-03T17:31:53.483Z,97.32
2018-01-03T17:33:16.173Z,97.28
2018-01-03T17:34:47.145Z,97.35
2018-01-03T17:36:10.623Z,97.39
2018-01-03T17:37:41.792Z,97.65
2018-01-03T17:39:09.137Z,97.22
2018-01-03T17:40:32.565Z,96.78
2018-01-03T17:41:59.857Z,96.32
2018-01-03T17:43:27.164Z,96.35
2018-01-03T17:44:58.582Z,96.48
2018-01-03T17:46:25.620Z,96.42
2018-01-03T17:47:52.963Z,96.21
2018-01-03T17:49:16.196Z,96.19
2018-01-03T17:50:47.219Z,96.37
2018-01-03T17:52:10.718Z,96.21
2018-01-03T17:53:41.976Z,96.12
2018-01-03T17:55:05.356Z,96.22
2018-01-03T17:56:36.743Z,96.16
2018-01-03T17:58:03.816Z,96.14
2018-01-03T17:59:27.034Z,96.14
2018-01-03T18:00:57.818Z,95.77
2018-01-03T18:02:24.638Z,95.76
2018-01-03T18:03:52.130Z,95.67
2018-01-03T18:05:19.091Z,95.57
2018-01-03T18:06:42.303Z,95.47
2018-01-03T18:08:13.561Z,95.34
2018-01-03T18:09:36.876Z,95.36
2018-01-03T18:11:04.366Z,95.53
2018-01-03T18:12:31.410Z,95.52
2018-01-03T18:13:58.730Z,95.54
2018-01-03T18:15:30.166Z,95.45
2018-01-03T18:16:52.821Z,95.59
2018-01-03T18:18:20.115Z,95.74
2018-01-03T18:19:50.483Z,95.70
2018-01-03T18:21:17.305Z,95.74
2018-01-03T18:22:40.207Z,95.67
2018-01-03T18:24:06.762Z,95.69
2018-01-03T18:25:33.969Z,95.80
2018-01-03T18:27:05.273Z,96.00
2018-01-03T18:28:28.038Z,96.13
2018-01-03T18:29:54.849Z,96.28
2018-01-03T18:31:22.167Z,96.64